createdAt,value
2018-05-17T00:00:04.952Z,961.91
2018-05-17T00:15:04.421Z,962.21
2018-05-17T00:30:04.666Z,962.04
2018-05-17T00:45:04.928Z,962.1
2018-05-17T01:00:05.700Z,962.45
2018-05-17T01:15:05.428Z,962.61
2018-05-17T01:30:05.119Z,962.91
2018-05-17T01:45:04.927Z,962.94
2018-05-17T02:00:04.892Z,963.38
2018-05-17T02:15:04.562Z,963.54
2018-05-17T02:30:04.665Z,963.89
2018-05-17T02:45:04.990Z,965.23
2018-05-17T03:00:04.507Z,964.41
2018-05-17T03:15:05.263Z,965.91
2018-05-17T03:30:05.025Z,964.87
2018-05-17T03:45:05.087Z,964.87
2018-05-17T04:00:05.007Z,964.93
2018-05-17T04:15:04.673Z,965.55
2018-05-17T04:30:05.334Z,964.85
2018-05-17T04:45:05.362Z,964.36
2018-05-17T05:00:04.725Z,964.27
2018-05-17T05:15:04.727Z,964.06
2018-05-17T05:30:04.883Z,964.11
2018-05-17T05:45:04.797Z,963.81
2018-05-17T06:00:04.756Z,963.62
2018-05-17T06:15:05.405Z,964.36
2018-05-17T06:30:05.023Z,963.68
2018-05-17T06:45:05.143Z,963.32
2018-05-17T07:00:04.967Z,963.27
2018-05-17T07:15:04.460Z,963.3
2018-05-17T07:30:05.022Z,963
2018-05-17T07:45:04.565Z,963.16
2018-05-17T08:00:04.548Z,963.32
2018-05-17T08:15:04.510Z,963.35
2018-05-17T08:30:04.629Z,963.46
2018-05-17T08:45:04.599Z,963.54
2018-05-17T09:00:04.574Z,962.97
2018-05-17T09:15:04.401Z,963.02
2018-05-17T09:30:04.509Z,963.27
2018-05-17T09:45:05.052Z,963.49
2018-05-17T10:00:04.545Z,962.91
2018-05-17T10:15:05.076Z,962.81
2018-05-17T10:30:04.684Z,962.91
2018-05-17T10:45:05.189Z,962.45
2018-05-17T11:00:04.714Z,961.99
2018-05-17T11:15:04.562Z,962.29
2018-05-17T11:30:05.250Z,961.88
2018-05-17T11:45:04.827Z,961.66
2018-05-17T12:00:04.977Z,961.8
2018-05-17T12:15:04.439Z,961.69
2018-05-17T12:30:05.055Z,961.04
2018-05-17T12:45:04.473Z,961.36
2018-05-17T13:00:04.451Z,960.79
2018-05-17T13:15:04.420Z,961.28
2018-05-17T13:30:04.646Z,967.88
2018-05-17T13:45:04.624Z,960.38
2018-05-17T14:00:04.543Z,967.38
2018-05-17T14:15:05.080Z,967.44
2018-05-17T14:30:04.663Z,967.27
2018-05-17T14:45:05.143Z,967
2018-05-17T15:00:04.628Z,966.95
2018-05-17T15:15:04.637Z,966.42
2018-05-17T15:30:06.563Z,966.78
2018-05-17T15:45:04.751Z,966.67
2018-05-17T16:00:05.255Z,966.7
2018-05-17T16:15:06.866Z,966.81
2018-05-17T16:30:04.728Z,966.42
2018-05-17T16:45:04.818Z,966.34
2018-05-17T17:00:04.648Z,967.41
2018-05-17T17:15:05.374Z,966.73
2018-05-17T17:30:05.265Z,966.75
2018-05-17T17:45:05.301Z,966.59
2018-05-17T18:00:04.763Z,966.59
2018-05-17T18:15:05.268Z,966.75
2018-05-17T18:30:04.929Z,967.08
2018-05-17T18:45:04.970Z,967.44
2018-05-17T19:00:04.901Z,967.74
2018-05-17T19:15:04.862Z,968.32
2018-05-17T19:30:04.891Z,968.7
2018-05-17T19:45:05.280Z,961.72
2018-05-17T20:00:05.338Z,961.96
2018-05-17T20:15:04.895Z,962.1
2018-05-17T20:30:05.242Z,962.56
2018-05-17T20:45:04.740Z,963.02
2018-05-17T21:00:05.369Z,963.08
2018-05-17T21:15:10.168Z,963.13
2018-05-17T21:30:05.555Z,963.16
2018-05-17T21:45:04.486Z,963.51
2018-05-17T22:00:05.026Z,963.84
2018-05-17T22:15:04.572Z,963.7
2018-05-17T22:30:04.986Z,964.33
2018-05-17T22:45:04.836Z,965.06
2018-05-17T23:00:05.537Z,964.52
2018-05-17T23:15:04.739Z,965.01
2018-05-17T23:30:04.843Z,965.28
2018-05-17T23:45:04.935Z,964.9
